Pinkney, North Carolina
Current Conditions -  °F | °C
As of 11:54 PM on Sunday 21 Dec 2014 (Local Time) from KAKH Reporting Station
Overcast Overcast  
Wind Chill: 42°   Ceiling: 3700
Heat Index: 46°   Visibility: 10mi
Dew Point: 36°   Wind: 8mph
Humidity: 68%   Direction: 30°NNE
Pressure: 30.18"   Gusts: NA
Location:  35.2205°N, 81.2501°W
Report Text: KAKH 220454Z AUTO 03007KT 10SM OVC037 08/02 A3018 RMK AO2 SLP220 T00780022 401060056
Loading
Personal Weather Stations






























Interactive Weather Map New forecast layout! Learn more

10-Day Weather Forecast

Advertisements
Track Severe Weather on mobile